This is the latest recevied weather packets stored in our database for station/object N0LTM. If no packets are shown the sender has not sent any weather packets the latest 10 day(s).
| Time | Temp. | Humidity | Pressure | Rain* | Wind** | Luminosity | Snow |
|---|---|---|---|---|---|---|---|
| 1777959976 | 13.33° C | 40% | 1003 hPa | 0 mm | - | - | - |
| 1777959059 | 13.33° C | 40% | 1002.8 hPa | 0 mm | - | - | - |
| 1777958456 | 13.33° C | 40% | 1002.9 hPa | 0 mm | - | - | - |
| 1777957853 | 13.89° C | 40% | 1002.8 hPa | 0 mm | - | - | - |
| 1777952156 | 16.67° C | 37% | 1001.9 hPa | 0 mm | - | - | - |
| 1777950656 | 17.78° C | 35% | 1001.2 hPa | 0 mm | - | - | - |
| 1777950359 | 17.78° C | 35% | 1001.2 hPa | 0 mm | - | - | - |
| 1777949168 | 17.22° C | 45% | 1001.2 hPa | 0 mm | - | - | - |
| 1777948255 | 17.78° C | 52% | 1000.7 hPa | 0 mm | - | - | - |
| 1777947952 | 17.78° C | 55% | 1000.6 hPa | 0 mm | - | - | - |
| 1777947656 | 17.78° C | 56% | 1000.4 hPa | 0 mm | - | - | - |
| 1777947372 | 17.22° C | 57% | 1000.3 hPa | 0 mm | - | - | - |
| 1777947056 | 17.22° C | 59% | 1000.2 hPa | 0 mm | - | - | - |
| 1777944654 | 18.89° C | 55% | 999 hPa | 0 mm | - | - | - |
| 1777944356 | 18.89° C | 57% | 999 hPa | 0 mm | - | - | - |
| 1777941959 | 20.56° C | 45% | 998.5 hPa | 0 mm | - | - | - |
| 1777940456 | 21.11° C | 39% | 997.1 hPa | 0 mm | - | - | - |
| 1777939555 | 21.11° C | 42% | 997.1 hPa | 0 mm | - | - | - |
| 1777938656 | 21.11° C | 42% | 996.9 hPa | 0 mm | - | - | - |
| 1777936555 | 21.67° C | 41% | 997.4 hPa | 0 mm | - | - | - |
| 1777935052 | 21.11° C | 45% | 998 hPa | 0 mm | - | - | - |
| 1777934153 | 22.22° C | 37% | 998.6 hPa | 0 mm | - | - | - |
| 1777932352 | 25° C | 28% | 998.1 hPa | 0 mm | - | - | - |
| 1777930852 | 25.56° C | 27% | 998.2 hPa | 0 mm | - | - | - |
| 1777930277 | 25.56° C | 27% | 998.3 hPa | 0 mm | - | - | - |
* Rain latest hour (hover to see other rain measurements)
** Current wind speed in m/s (hover to see current wind gust speed)